Time;durP1;ratioP1;P1;durP2;ratioP2;P2;SDS_P1;SDS_P2;PMS_P1;PMS_P2;Temp;Humidity;BMP_temperature;BMP_pressure;BME280_temperature;BME280_humidity;BME280_pressure;Samples;Min_cycle;Max_cycle;Signal;HPM_P1;HPM_P2
2020/12/27 00:00:32;;;;;;;3.00;1.95;;;;;;;3.90;99.51;100044.31;4986479;28;20050;-91
2020/12/27 00:02:57;;;;;;;4.55;2.28;;;;;;;3.84;100.00;100026.28;4986876;28;20081;-87
2020/12/27 00:05:22;;;;;;;4.00;2.92;;;;;;;3.77;100.00;100007.44;4978976;28;20034;-88
2020/12/27 00:07:48;;;;;;;3.22;2.30;;;;;;;3.75;100.00;99998.75;4987928;28;20042;-86
2020/12/27 00:10:14;;;;;;;2.58;2.00;;;;;;;3.74;100.00;100004.19;5009041;28;20045;-87
2020/12/27 00:12:42;;;;;;;3.92;2.20;;;;;;;3.74;100.00;99994.44;5016071;28;20475;-87
2020/12/27 00:15:07;;;;;;;2.78;1.95;;;;;;;3.79;100.00;99968.31;4989777;28;20050;-88
2020/12/27 00:17:33;;;;;;;2.60;1.80;;;;;;;3.81;100.00;99976.97;4994042;28;20040;-85
2020/12/27 00:19:58;;;;;;;2.20;1.60;;;;;;;3.86;99.02;99914.69;4974502;28;20043;-88
2020/12/27 00:22:33;;;;;;;2.83;1.50;;;;;;;3.90;98.35;99948.75;4987696;28;20042;-88
2020/12/27 00:24:58;;;;;;;2.17;1.70;;;;;;;3.94;98.07;99950.16;4990859;28;20453;-88
2020/12/27 00:27:23;;;;;;;3.10;1.80;;;;;;;3.93;97.03;99944.97;4996534;28;20046;-87
2020/12/27 00:29:49;;;;;;;2.67;1.35;;;;;;;3.96;96.98;99928.75;4987188;28;20522;-89
2020/12/27 00:32:14;;;;;;;2.72;1.50;;;;;;;3.96;96.75;99900.38;5016558;28;20097;-88
2020/12/27 00:34:41;;;;;;;2.22;1.30;;;;;;;3.96;96.79;99926.09;5006177;28;20803;-86
2020/12/27 00:37:06;;;;;;;2.58;1.42;;;;;;;3.95;96.88;99919.13;4991812;28;20050;-89
2020/12/27 00:39:31;;;;;;;2.03;1.30;;;;;;;3.96;96.93;99902.22;4990986;28;20061;-88
2020/12/27 00:41:58;;;;;;;2.20;1.60;;;;;;;3.96;97.01;99910.16;5004808;28;20120;-86
2020/12/27 00:44:24;;;;;;;2.92;1.40;;;;;;;3.90;97.06;99908.09;5001034;28;20055;-87
2020/12/27 00:46:52;;;;;;;2.15;1.38;;;;;;;3.90;97.40;99906.28;4970783;28;20114;-89
2020/12/27 00:49:18;;;;;;;2.42;1.30;;;;;;;3.87;97.46;99895.09;5007830;28;20042;-86
2020/12/27 00:51:44;;;;;;;3.47;1.30;;;;;;;3.86;98.02;99881.00;5007678;28;20052;-87
2020/12/27 00:54:09;;;;;;;2.35;1.40;;;;;;;3.86;97.91;99861.59;5007014;28;20125;-90
2020/12/27 00:56:35;;;;;;;3.15;1.60;;;;;;;3.84;98.04;99867.88;5003643;28;20142;-90
2020/12/27 00:59:00;;;;;;;2.47;1.33;;;;;;;3.81;97.35;99848.75;4981054;28;20034;-88
2020/12/27 01:01:26;;;;;;;2.28;1.23;;;;;;;3.83;97.46;99841.50;4988570;28;20100;-87
2020/12/27 01:03:51;;;;;;;1.92;1.40;;;;;;;3.82;98.17;99823.88;5006047;28;20088;-87
2020/12/27 01:06:27;;;;;;;2.28;1.40;;;;;;;3.79;97.76;99813.53;5007066;28;20046;-88
2020/12/27 01:08:55;;;;;;;2.00;1.25;;;;;;;3.80;98.38;99817.88;5007075;28;20037;-88
2020/12/27 01:11:21;;;;;;;2.80;1.27;;;;;;;3.78;98.81;99825.16;5026253;28;20053;-88
2020/12/27 01:13:47;;;;;;;2.03;1.30;;;;;;;3.79;98.57;99798.44;5004436;28;20364;-88
2020/12/27 01:16:13;;;;;;;2.60;1.50;;;;;;;3.77;98.47;99796.91;4999649;28;20088;-89
2020/12/27 01:18:41;;;;;;;3.47;1.52;;;;;;;3.73;98.46;99761.88;5006882;28;20061;-88
2020/12/27 01:21:08;;;;;;;3.50;1.23;;;;;;;3.75;98.71;99721.94;5005985;28;20041;-87
2020/12/27 01:23:35;;;;;;;2.58;1.40;;;;;;;3.67;99.55;99741.25;4989879;28;20509;-88
2020/12/27 01:26:02;;;;;;;2.35;1.30;;;;;;;3.64;100.00;99730.91;5001812;28;20030;-89
2020/12/27 01:28:29;;;;;;;2.20;1.50;;;;;;;3.58;100.00;99720.91;4976415;28;20042;-90
2020/12/27 01:30:54;;;;;;;2.30;1.40;;;;;;;3.51;100.00;99710.03;4985087;28;20565;-87
2020/12/27 01:33:19;;;;;;;2.78;1.52;;;;;;;3.50;100.00;99711.00;4991230;28;20045;-88
2020/12/27 01:35:46;;;;;;;3.00;1.50;;;;;;;3.50;100.00;99707.53;4991342;28;20121;-89
2020/12/27 01:38:12;;;;;;;3.45;1.75;;;;;;;3.51;100.00;99693.25;5003497;28;20042;-88
2020/12/27 01:40:39;;;;;;;4.47;1.17;;;;;;;3.54;99.46;99706.22;4994427;28;20038;-90
2020/12/27 01:43:05;;;;;;;2.05;1.25;;;;;;;3.56;99.45;99701.63;5001193;28;20060;-88
2020/12/27 01:45:30;;;;;;;1.83;1.20;;;;;;;3.56;98.40;99691.00;4984348;28;20089;-88
2020/12/27 01:47:57;;;;;;;3.42;1.50;;;;;;;3.59;98.08;99701.34;5011763;28;20495;-87
2020/12/27 01:50:24;;;;;;;2.85;1.50;;;;;;;3.61;97.04;99696.72;5010758;28;20148;-88
2020/12/27 01:52:52;;;;;;;2.17;1.30;;;;;;;3.65;96.57;99692.78;5008145;28;20045;-88
2020/12/27 01:55:18;;;;;;;3.03;1.48;;;;;;;3.70;96.08;99693.19;5009270;28;20353;-89
2020/12/27 01:58:02;;;;;;;2.38;1.08;;;;;;;3.72;95.26;99674.47;5006140;28;20078;-89
2020/12/27 02:00:34;;;;;;;2.20;1.13;;;;;;;3.73;94.17;99618.59;4992284;28;20582;-90
2020/12/27 02:03:04;;;;;;;2.80;1.23;;;;;;;3.74;93.10;99660.09;4989633;28;20069;-87
2020/12/27 02:05:32;;;;;;;2.75;1.30;;;;;;;3.75;92.88;99653.78;4985997;28;20134;-89
2020/12/27 02:07:59;;;;;;;2.60;1.30;;;;;;;3.78;93.58;99632.25;5001137;28;20061;-87
2020/12/27 02:10:25;;;;;;;2.13;1.17;;;;;;;3.77;92.49;99643.88;5011416;28;20046;-88
2020/12/27 02:12:51;;;;;;;1.95;1.00;;;;;;;3.76;92.41;99650.13;4987560;28;20180;-87
2020/12/27 02:15:16;;;;;;;2.42;1.30;;;;;;;3.80;93.05;99634.78;4989034;28;20173;-88
2020/12/27 02:17:42;;;;;;;1.98;0.90;;;;;;;3.76;91.55;99605.03;5022832;28;20052;-87
2020/12/27 02:20:08;;;;;;;1.10;0.90;;;;;;;3.77;91.15;99613.81;4985068;28;20104;-86
2020/12/27 02:22:33;;;;;;;1.67;1.10;;;;;;;3.79;91.95;99612.69;5028374;28;20033;-88
2020/12/27 02:25:01;;;;;;;1.90;1.00;;;;;;;3.76;90.96;99607.69;5026612;28;20481;-88
2020/12/27 02:27:31;;;;;;;1.67;1.10;;;;;;;3.78;90.62;99589.81;4993708;28;20064;-87
2020/12/27 02:29:58;;;;;;;2.22;1.10;;;;;;;3.79;89.94;99570.22;5009536;28;20038;-88
2020/12/27 02:32:24;;;;;;;2.08;1.27;;;;;;;3.82;90.49;99563.78;5011109;28;20075;-86
2020/12/27 02:34:50;;;;;;;2.15;1.30;;;;;;;3.84;90.70;99553.88;5007987;28;20508;-87
2020/12/27 02:37:15;;;;;;;3.03;1.30;;;;;;;3.80;90.11;99566.59;5010771;28;20046;-86
2020/12/27 02:39:41;;;;;;;3.70;1.50;;;;;;;3.79;90.18;99538.38;4993208;28;20042;-89
2020/12/27 02:42:07;;;;;;;2.05;1.52;;;;;;;3.79;90.24;99533.06;5011326;28;20057;-86
2020/12/27 02:47:34;;;;;;;2.30;1.50;;;;;;;3.79;90.36;99506.53;5007382;28;20046;-88
2020/12/27 02:49:59;;;;;;;2.33;1.58;;;;;;;3.78;90.50;99494.28;4987091;28;20136;-88
2020/12/27 02:52:26;;;;;;;2.63;1.55;;;;;;;3.78;90.87;99488.97;4980978;28;20603;-87
2020/12/27 02:54:53;;;;;;;2.55;1.60;;;;;;;3.76;90.33;99471.53;4985542;28;20398;-88
2020/12/27 02:57:18;;;;;;;2.95;1.70;;;;;;;3.79;90.43;99465.91;4985836;28;20053;-86
2020/12/27 02:59:45;;;;;;;2.05;1.27;;;;;;;3.78;90.33;99445.69;5009076;28;20046;-86
2020/12/27 03:02:11;;;;;;;2.30;1.50;;;;;;;3.78;90.29;99446.50;5009346;28;20042;-89
2020/12/27 03:04:37;;;;;;;2.13;1.38;;;;;;;3.80;90.28;99433.09;4992997;28;20069;-88
2020/12/27 03:07:03;;;;;;;2.92;1.52;;;;;;;3.79;90.38;99416.31;4990426;28;20049;-88
2020/12/27 03:09:30;;;;;;;1.88;1.25;;;;;;;3.77;89.67;99418.31;5007772;28;20049;-91
2020/12/27 03:11:55;;;;;;;2.05;1.35;;;;;;;3.78;89.71;99412.00;5007777;28;20099;-86
2020/12/27 03:14:22;;;;;;;4.20;1.70;;;;;;;3.79;89.90;99400.41;5007307;28;20450;-88
2020/12/27 03:16:48;;;;;;;2.28;1.33;;;;;;;3.78;89.77;99382.00;4991729;28;20030;-88
2020/12/27 03:19:13;;;;;;;2.00;1.25;;;;;;;3.77;89.99;99333.41;4991051;28;20104;-88
2020/12/27 03:21:39;;;;;;;2.38;1.30;;;;;;;3.76;89.49;99371.50;5011875;28;20051;-89
2020/12/27 03:24:04;;;;;;;3.70;1.30;;;;;;;3.79;89.59;99352.63;5020253;28;20037;-88
2020/12/27 03:26:30;;;;;;;2.53;1.17;;;;;;;3.78;89.58;99335.06;5010777;28;20061;-87
2020/12/27 03:28:56;;;;;;;2.70;1.50;;;;;;;3.77;89.04;99348.47;4992604;28;20101;-87
2020/12/27 03:31:21;;;;;;;3.33;1.27;;;;;;;3.78;89.74;99316.47;5005616;28;20565;-88
2020/12/27 03:33:47;;;;;;;4.68;1.75;;;;;;;3.78;89.59;99327.09;4991847;28;20046;-87
2020/12/27 03:36:13;;;;;;;2.63;1.73;;;;;;;3.80;89.54;99305.72;5010388;28;20045;-88
2020/12/27 03:38:38;;;;;;;3.30;1.60;;;;;;;3.79;89.42;99296.06;5009702;28;20131;-88
2020/12/27 03:41:04;;;;;;;2.15;1.30;;;;;;;3.80;89.52;99301.25;5009228;28;20038;-90
2020/12/27 03:43:29;;;;;;;3.63;1.25;;;;;;;3.80;89.24;99298.59;5006781;28;20039;-89
2020/12/27 03:45:54;;;;;;;3.08;1.23;;;;;;;3.84;89.41;99268.09;5008315;28;20045;-88
2020/12/27 03:48:21;;;;;;;2.63;1.30;;;;;;;3.86;89.33;99256.50;5009215;28;20061;-88
2020/12/27 03:50:46;;;;;;;2.47;1.17;;;;;;;3.85;88.72;99266.25;5006686;28;20116;-88
2020/12/27 03:53:12;;;;;;;5.60;1.77;;;;;;;3.85;89.22;99245.03;5005944;28;20046;-88
2020/12/27 03:55:39;;;;;;;2.33;1.33;;;;;;;3.87;87.99;99234.25;5008736;28;20038;-90
2020/12/27 03:58:04;;;;;;;2.35;1.40;;;;;;;3.89;89.29;99253.53;5009644;28;20089;-87
2020/12/27 04:00:30;;;;;;;2.78;1.27;;;;;;;3.88;88.26;99217.34;5011711;28;20506;-90
2020/12/27 04:02:56;;;;;;;2.10;1.08;;;;;;;3.92;88.74;99226.66;4993961;28;20390;-89
2020/12/27 04:05:22;;;;;;;2.00;1.25;;;;;;;3.90;88.62;99200.28;5007824;28;20035;-85
2020/12/27 04:07:47;;;;;;;2.42;1.27;;;;;;;3.91;87.99;99204.56;5026229;28;20044;-87
2020/12/27 04:10:13;;;;;;;1.60;0.90;;;;;;;3.91;88.30;99188.66;5006820;28;20046;-87
2020/12/27 04:12:38;;;;;;;1.90;1.00;;;;;;;3.93;88.28;99205.25;5010952;28;20038;-86
2020/12/27 04:15:03;;;;;;;1.85;0.90;;;;;;;3.95;88.08;99165.28;5009809;28;20044;-89
2020/12/27 04:17:29;;;;;;;2.67;1.15;;;;;;;3.97;88.32;99189.84;5010321;28;20085;-86
2020/12/27 04:19:54;;;;;;;2.95;1.08;;;;;;;3.98;87.79;99167.63;5005430;28;20498;-88
2020/12/27 04:22:19;;;;;;;2.65;1.20;;;;;;;3.96;87.93;99183.69;5000293;28;20509;-88
2020/12/27 04:24:45;;;;;;;1.63;1.10;;;;;;;3.95;87.53;99166.13;5010649;28;20533;-89
2020/12/27 04:27:10;;;;;;;1.80;1.10;;;;;;;3.97;87.27;99142.06;4993330;28;20376;-86
2020/12/27 04:29:36;;;;;;;1.40;0.80;;;;;;;4.00;87.49;99136.41;5010428;28;20042;-87
2020/12/27 04:32:01;;;;;;;2.50;0.95;;;;;;;4.00;87.54;99142.59;5025924;28;20498;-88
2020/12/27 04:34:27;;;;;;;1.85;0.90;;;;;;;4.01;87.22;99128.31;4993946;28;20038;-85
2020/12/27 04:36:52;;;;;;;1.50;0.88;;;;;;;4.05;87.71;99102.25;5002821;28;20450;-87
2020/12/27 04:39:17;;;;;;;1.45;0.80;;;;;;;4.04;87.13;99105.91;4972188;28;20038;-88
2020/12/27 04:41:44;;;;;;;1.17;0.68;;;;;;;4.06;87.29;99103.94;4990355;28;20046;-88
2020/12/27 04:44:10;;;;;;;2.15;1.05;;;;;;;4.06;86.85;99088.03;4992898;28;20064;-89
2020/12/27 04:46:39;;;;;;;1.67;0.75;;;;;;;4.08;87.99;99072.72;5002438;28;20050;-85
2020/12/27 04:49:07;;;;;;;1.58;0.90;;;;;;;4.06;88.21;99064.94;5001022;28;20423;-89
2020/12/27 04:51:32;;;;;;;1.05;0.60;;;;;;;4.07;87.88;99039.22;5003161;28;20529;-86
2020/12/27 04:53:58;;;;;;;3.40;0.90;;;;;;;4.07;87.94;99040.06;5010232;28;20043;-88
2020/12/27 04:56:26;;;;;;;1.52;0.80;;;;;;;4.10;88.21;99056.66;4991461;28;20066;-89
2020/12/27 04:58:54;;;;;;;2.50;0.80;;;;;;;4.07;88.29;99052.50;5023263;28;20500;-85
2020/12/27 05:01:19;;;;;;;2.03;1.05;;;;;;;4.08;88.72;99067.44;5007902;28;20045;-87
2020/12/27 05:03:44;;;;;;;1.60;0.93;;;;;;;4.07;88.24;99048.03;4999234;28;20045;-87
2020/12/27 05:06:16;;;;;;;1.77;0.90;;;;;;;4.08;87.87;99059.47;5008516;28;20045;-86
2020/12/27 05:08:46;;;;;;;1.48;0.80;;;;;;;4.09;88.35;99050.53;5007971;28;20046;-90
2020/12/27 05:11:16;;;;;;;2.75;1.40;;;;;;;4.11;88.21;99037.91;5017631;28;20113;-88
2020/12/27 05:13:46;;;;;;;3.47;1.20;;;;;;;4.09;88.56;99042.56;5023785;28;20125;-88
2020/12/27 05:16:16;;;;;;;1.63;0.95;;;;;;;4.08;88.91;99032.91;5007807;28;20045;-87
2020/12/27 05:18:54;;;;;;;2.58;1.27;;;;;;;4.09;88.75;99039.09;4988746;28;20105;-87
2020/12/27 05:21:22;;;;;;;1.65;0.82;;;;;;;4.06;88.59;99029.63;5024256;28;20046;-87
2020/12/27 05:23:52;;;;;;;1.70;0.97;;;;;;;4.06;88.74;99019.00;5013064;28;20061;-89
2020/12/27 05:26:18;;;;;;;2.17;1.13;;;;;;;4.05;88.85;98993.44;5009204;28;20931;-88
2020/12/27 05:28:45;;;;;;;2.67;1.02;;;;;;;4.01;89.34;99006.22;5020931;28;20046;-88
2020/12/27 05:31:14;;;;;;;2.65;1.00;;;;;;;3.98;90.48;98995.09;5007576;28;20062;-86
2020/12/27 05:33:40;;;;;;;;;;;;;;;3.96;91.02;98967.91;4999810;28;20353;-88
2020/12/27 05:36:06;;;;;;;2.72;0.90;;;;;;;3.83;92.16;98961.25;5021896;28;19921;-87
2020/12/27 05:38:31;;;;;;;2.42;0.95;;;;;;;3.82;92.13;98970.19;5009249;28;20049;-87
2020/12/27 05:40:57;;;;;;;2.22;1.10;;;;;;;3.79;92.86;98954.63;5010901;28;20043;-86
2020/12/27 05:43:22;;;;;;;2.55;1.15;;;;;;;3.79;93.61;98940.53;4978720;28;20038;-86
2020/12/27 05:45:48;;;;;;;3.00;1.40;;;;;;;3.79;94.24;98938.69;5002630;28;20541;-87
2020/12/27 05:48:13;;;;;;;2.15;1.20;;;;;;;3.76;94.86;98928.41;5019313;28;20077;-87
2020/12/27 05:50:41;;;;;;;2.28;1.20;;;;;;;3.77;95.37;98913.31;5008706;28;20402;-87
2020/12/27 05:53:29;;;;;;;2.80;1.17;;;;;;;3.72;95.38;98905.88;4991900;28;20395;-87
2020/12/27 05:55:59;;;;;;;3.70;1.33;;;;;;;3.69;96.20;98892.13;5002624;28;20469;-86
2020/12/27 05:58:25;;;;;;;2.80;1.35;;;;;;;3.66;96.69;98901.25;4991407;28;20040;-89
2020/12/27 06:00:52;;;;;;;3.92;1.48;;;;;;;3.63;97.27;98896.28;5000628;28;20034;-86
2020/12/27 06:03:20;;;;;;;4.72;1.50;;;;;;;3.59;97.98;98879.00;5008226;28;20070;-87
2020/12/27 06:05:54;;;;;;;2.45;1.30;;;;;;;3.59;98.21;98873.72;5007824;28;20548;-89
2020/12/27 06:08:28;;;;;;;1.95;0.98;;;;;;;3.56;98.11;98860.78;5024961;28;20053;-88
2020/12/27 06:11:03;;;;;;;2.10;1.02;;;;;;;3.54;98.36;98858.31;5009446;28;20038;-89
2020/12/27 06:13:28;;;;;;;3.17;1.30;;;;;;;3.56;98.94;98853.66;5017200;28;20470;-86
2020/12/27 06:15:57;;;;;;;3.45;1.73;;;;;;;3.57;98.72;98831.44;5008777;28;20120;-85
2020/12/27 06:18:29;;;;;;;2.72;1.35;;;;;;;3.58;99.29;98824.31;4992512;28;20184;-87
2020/12/27 06:21:11;;;;;;;2.67;1.55;;;;;;;3.54;99.57;98809.72;5018290;28;20072;-88
2020/12/27 06:23:38;;;;;;;2.10;1.00;;;;;;;3.57;98.72;98801.44;5006150;28;20045;-88
2020/12/27 06:26:06;;;;;;;2.05;0.82;;;;;;;3.58;98.11;98782.69;5004384;28;20048;-88
2020/12/27 06:28:33;;;;;;;2.70;1.38;;;;;;;3.65;98.08;98776.72;5007131;28;20052;-86
2020/12/27 06:31:10;;;;;;;2.13;0.93;;;;;;;3.66;97.41;98765.97;5022873;28;20069;-87
2020/12/27 06:33:38;;;;;;;3.17;1.10;;;;;;;3.72;97.30;98745.88;5006702;28;20049;-86
2020/12/27 06:36:04;;;;;;;3.17;0.97;;;;;;;3.76;96.84;98755.97;5007534;28;20096;-89
2020/12/27 06:38:32;;;;;;;2.05;0.77;;;;;;;3.78;95.74;98737.25;5005809;28;20042;-89
2020/12/27 06:41:09;;;;;;;1.30;0.80;;;;;;;3.79;95.76;98739.69;5021116;28;20069;-87
2020/12/27 06:43:43;;;;;;;1.92;0.88;;;;;;;3.77;96.05;98739.06;4974049;28;20486;-87
2020/12/27 06:46:26;;;;;;;0.80;0.60;;;;;;;3.77;95.70;98711.69;5006566;28;20143;-89
2020/12/27 06:49:08;;;;;;;2.90;0.90;;;;;;;3.77;96.92;98731.09;5004093;28;20843;-88
2020/12/27 06:51:40;;;;;;;2.03;1.10;;;;;;;3.76;97.00;98694.94;5004182;28;20040;-88
2020/12/27 06:54:05;;;;;;;2.78;0.98;;;;;;;3.72;97.36;98701.59;5000181;28;20129;-88
2020/12/27 06:56:42;;;;;;;3.03;0.95;;;;;;;3.71;97.73;98702.63;5005862;28;20129;-89
2020/12/27 06:59:08;;;;;;;2.95;0.93;;;;;;;3.71;98.06;98681.41;4986505;28;20042;-86
2020/12/27 07:01:34;;;;;;;3.35;1.30;;;;;;;3.70;98.25;98677.06;5012853;28;20037;-90
2020/12/27 07:04:11;;;;;;;2.75;1.17;;;;;;;3.64;98.51;98651.22;5002498;28;20149;-87
2020/12/27 07:06:57;;;;;;;2.40;1.00;;;;;;;3.63;98.78;98641.63;5007465;28;20046;-88
2020/12/27 07:09:25;;;;;;;2.03;0.90;;;;;;;3.61;99.15;98622.41;4969359;28;20051;-90
2020/12/27 07:12:07;;;;;;;1.75;0.90;;;;;;;3.60;99.29;98642.78;4987200;28;20046;-87
2020/12/27 07:14:39;;;;;;;2.25;0.90;;;;;;;3.56;99.80;98630.03;4984802;28;20399;-88
2020/12/27 07:17:06;;;;;;;2.03;1.00;;;;;;;3.55;99.55;98623.09;4984876;28;20030;-87
2020/12/27 07:19:35;;;;;;;2.10;0.93;;;;;;;3.53;100.00;98619.78;4986903;28;20397;-89
2020/12/27 07:22:10;;;;;;;1.53;0.90;;;;;;;3.49;100.00;98598.09;4989392;28;20031;-89
2020/12/27 07:24:41;;;;;;;4.35;0.90;;;;;;;3.51;100.00;98595.25;4989850;28;20038;-87
2020/12/27 07:27:11;;;;;;;2.50;1.17;;;;;;;3.51;100.00;98605.84;4990020;28;20047;-87
2020/12/27 07:29:37;;;;;;;3.00;1.05;;;;;;;3.49;100.00;98587.47;4983110;28;20070;-87
2020/12/27 07:32:03;;;;;;;2.50;0.90;;;;;;;3.48;100.00;98577.88;4990129;28;20085;-89
2020/12/27 07:34:30;;;;;;;1.98;0.93;;;;;;;3.49;100.00;98560.97;4988229;28;20046;-86
2020/12/27 07:37:07;;;;;;;1.70;1.00;;;;;;;3.50;100.00;98551.19;5001670;28;20039;-90
2020/12/27 07:39:51;;;;;;;1.85;0.80;;;;;;;3.49;100.00;98538.94;5007313;28;20510;-89
2020/12/27 07:42:28;;;;;;;1.90;0.88;;;;;;;3.47;100.00;98530.31;5009497;28;20030;-87
2020/12/27 07:44:56;;;;;;;1.30;0.90;;;;;;;3.47;100.00;98509.09;5002070;28;20171;-86
2020/12/27 07:47:22;;;;;;;1.75;0.90;;;;;;;3.46;100.00;98488.91;5008032;28;20050;-87
2020/12/27 07:50:09;;;;;;;2.03;0.85;;;;;;;3.46;100.00;98496.84;4992493;28;20119;-86
2020/12/27 07:52:53;;;;;;;2.83;0.75;;;;;;;3.48;100.00;98486.88;4991666;28;20042;-87
2020/12/27 07:55:26;;;;;;;0.98;0.60;;;;;;;3.48;100.00;98485.06;5023655;28;20045;-86
2020/12/27 07:57:53;;;;;;;1.80;0.75;;;;;;;3.49;99.82;98485.91;5008222;28;20034;-86
2020/12/27 08:00:24;;;;;;;2.75;1.00;;;;;;;3.52;100.00;98465.16;4991205;28;20065;-86
2020/12/27 08:02:50;;;;;;;1.83;0.68;;;;;;;3.53;99.83;98471.28;5008869;28;20065;-87
2020/12/27 08:05:16;;;;;;;1.17;0.65;;;;;;;3.54;99.67;98463.16;5008709;28;20125;-86
2020/12/27 08:07:42;;;;;;;4.22;0.80;;;;;;;3.54;99.83;98447.25;5009356;28;20046;-90
2020/12/27 08:10:24;;;;;;;2.00;0.68;;;;;;;3.55;100.00;98442.75;5023403;28;20095;-89
2020/12/27 08:12:52;;;;;;;2.13;0.93;;;;;;;3.54;100.00;98449.03;5007626;28;20041;-87
2020/12/27 08:15:17;;;;;;;1.33;0.75;;;;;;;3.55;100.00;98432.16;5010210;28;20038;-88
2020/12/27 08:17:59;;;;;;;1.98;0.63;;;;;;;3.53;100.00;98426.19;5023454;28;20449;-89
2020/12/27 08:20:26;;;;;;;1.50;0.80;;;;;;;3.53;100.00;98405.78;5007517;28;20052;-88
2020/12/27 08:23:06;;;;;;;1.20;0.60;;;;;;;3.51;100.00;98407.81;4991418;28;20038;-89
2020/12/27 08:25:33;;;;;;;1.45;0.50;;;;;;;3.53;100.00;98391.72;5008300;28;20043;-88
2020/12/27 08:28:00;;;;;;;1.48;0.77;;;;;;;3.53;100.00;98392.53;4982620;28;20042;-86
2020/12/27 08:30:27;;;;;;;2.05;0.80;;;;;;;3.54;100.00;98356.22;5026824;28;20585;-90
2020/12/27 08:33:22;;;;;;;2.95;0.90;;;;;;;3.58;100.00;98362.84;5009471;28;20030;-86
2020/12/27 08:35:49;;;;;;;1.15;0.60;;;;;;;3.58;100.00;98368.16;5004694;28;20103;-87
2020/12/27 08:38:24;;;;;;;1.75;0.80;;;;;;;3.60;100.00;98371.47;5015512;28;20101;-85
2020/12/27 08:41:05;;;;;;;1.73;0.70;;;;;;;3.61;100.00;98351.88;5008388;28;20131;-87
2020/12/27 08:43:58;;;;;;;2.97;1.10;;;;;;;3.60;100.00;98343.09;5020972;28;20502;-86
2020/12/27 08:46:41;;;;;;;1.67;0.95;;;;;;;3.63;100.00;98339.28;4978340;28;20060;-87
2020/12/27 08:49:40;;;;;;;3.47;0.95;;;;;;;3.64;100.00;98324.19;5007664;28;20498;-88
2020/12/27 08:52:12;;;;;;;1.17;0.73;;;;;;;3.63;100.00;98331.31;5002823;28;20052;-86
2020/12/27 08:54:40;;;;;;;3.65;0.75;;;;;;;3.61;100.00;98304.97;5022069;28;20477;-87
2020/12/27 08:57:07;;;;;;;2.15;1.20;;;;;;;3.64;100.00;98297.66;4994656;28;20104;-87
2020/12/27 08:59:32;;;;;;;5.00;1.67;;;;;;;3.66;100.00;98300.97;5007104;28;20050;-88
2020/12/27 09:02:10;;;;;;;3.15;1.35;;;;;;;3.65;100.00;98281.53;5025302;28;20371;-88
2020/12/27 09:04:36;;;;;;;2.43;1.17;;;;;;;3.65;100.00;98272.75;5025091;28;20037;-87
2020/12/27 09:07:02;;;;;;;3.78;1.20;;;;;;;3.66;100.00;98275.25;5007854;28;20100;-88
2020/12/27 09:09:28;;;;;;;4.32;0.90;;;;;;;3.67;100.00;98247.72;5024526;28;20068;-87
2020/12/27 09:11:54;;;;;;;3.50;0.88;;;;;;;3.69;100.00;98253.66;5003933;28;20506;-88
2020/12/27 09:14:48;;;;;;;2.70;0.80;;;;;;;3.67;100.00;98260.16;5024379;28;20044;-87
2020/12/27 09:17:16;;;;;;;1.83;0.95;;;;;;;3.68;100.00;98235.28;4997761;28;20565;-87
2020/12/27 09:19:46;;;;;;;1.80;0.85;;;;;;;3.68;100.00;98237.91;5005509;28;20076;-85
2020/12/27 09:22:11;;;;;;;3.10;1.20;;;;;;;3.67;100.00;98228.31;5023841;28;20050;-87
2020/12/27 09:24:41;;;;;;;2.30;0.98;;;;;;;3.65;100.00;98215.22;5000693;28;20490;-86
2020/12/27 09:27:07;;;;;;;;;;;;;;;3.62;100.00;98212.94;5026509;28;20050;-86
2020/12/27 09:29:35;;;;;;;3.10;1.10;;;;;;;3.56;100.00;98205.72;5006955;28;19936;-87
2020/12/27 09:32:08;;;;;;;2.35;0.60;;;;;;;3.53;100.00;98193.66;5007091;28;20041;-88
2020/12/27 09:34:34;;;;;;;1.30;0.70;;;;;;;3.56;100.00;98192.47;5008489;28;20405;-87
2020/12/27 09:37:17;;;;;;;3.10;1.27;;;;;;;3.58;100.00;98201.06;5009396;28;20046;-87
2020/12/27 09:39:54;;;;;;;1.70;0.90;;;;;;;3.58;100.00;98191.28;5011968;28;20042;-88
2020/12/27 09:42:21;;;;;;;2.25;0.73;;;;;;;3.56;100.00;98184.50;5010698;28;20053;-87
2020/12/27 09:44:47;;;;;;;1.35;0.77;;;;;;;3.56;100.00;98163.31;5011430;28;20080;-87
2020/12/27 09:47:21;;;;;;;2.17;1.10;;;;;;;3.56;100.00;98153.50;5005644;28;20455;-85
2020/12/27 09:50:02;;;;;;;2.55;1.05;;;;;;;3.56;100.00;98155.34;5022089;28;20057;-85
2020/12/27 09:52:29;;;;;;;1.77;0.75;;;;;;;3.53;100.00;98159.19;4989071;28;20459;-86
2020/12/27 09:54:56;;;;;;;3.15;0.73;;;;;;;3.53;100.00;98156.53;4990147;28;20088;-84
2020/12/27 09:57:24;;;;;;;1.52;0.90;;;;;;;3.54;100.00;98144.94;5009394;28;20053;-86
2020/12/27 09:59:52;;;;;;;1.70;0.70;;;;;;;3.51;100.00;98132.06;4990045;28;20181;-87
2020/12/27 10:02:18;;;;;;;2.72;0.93;;;;;;;3.51;100.00;98112.63;4982108;28;20117;-87
2020/12/27 10:04:44;;;;;;;1.40;0.93;;;;;;;3.49;100.00;98126.09;5004773;28;20956;-86
2020/12/27 10:07:10;;;;;;;1.50;0.73;;;;;;;3.48;100.00;98139.53;5022472;28;20520;-85
2020/12/27 10:09:36;;;;;;;1.00;0.60;;;;;;;3.42;100.00;98116.41;5005599;28;20056;-86
2020/12/27 10:12:02;;;;;;;1.27;0.57;;;;;;;3.44;100.00;98117.03;5006063;28;20034;-85
2020/12/27 10:14:28;;;;;;;1.35;0.80;;;;;;;3.44;100.00;98109.09;5004884;28;20529;-85
2020/12/27 10:16:56;;;;;;;1.85;1.02;;;;;;;3.43;100.00;98099.50;5005113;28;20038;-87
2020/12/27 10:19:22;;;;;;;1.47;1.00;;;;;;;3.44;100.00;98080.75;5008677;28;20053;-84
2020/12/27 10:21:48;;;;;;;1.50;0.98;;;;;;;3.42;100.00;98090.72;5005733;28;20292;-86
2020/12/27 10:24:15;;;;;;;1.73;0.85;;;;;;;3.43;100.00;98094.22;5006327;28;20054;-87
2020/12/27 10:26:41;;;;;;;1.52;0.80;;;;;;;3.44;100.00;98069.31;5005083;28;20415;-88
2020/12/27 10:29:06;;;;;;;1.45;0.88;;;;;;;3.42;100.00;98084.59;5007292;28;20104;-87
2020/12/27 10:31:31;;;;;;;1.70;0.95;;;;;;;3.39;100.00;98060.13;5005307;28;20049;-87
2020/12/27 10:33:59;;;;;;;1.90;0.80;;;;;;;3.41;100.00;98069.69;4983920;28;20121;-87
2020/12/27 10:36:24;;;;;;;1.70;0.80;;;;;;;3.38;100.00;98053.16;5014974;28;20091;-84
2020/12/27 10:38:50;;;;;;;0.98;0.60;;;;;;;3.36;100.00;98038.44;5007836;28;20038;-84
2020/12/27 10:41:16;;;;;;;1.73;0.90;;;;;;;3.39;100.00;98020.34;4990580;28;20049;-83
2020/12/27 10:43:49;;;;;;;3.00;1.00;;;;;;;3.38;100.00;98034.59;5011414;28;20045;-85
2020/12/27 10:46:14;;;;;;;2.75;1.48;;;;;;;3.39;100.00;98015.03;4994161;28;20145;-86
2020/12/27 10:48:39;;;;;;;2.13;0.93;;;;;;;3.34;100.00;98017.44;4997104;28;20530;-85
2020/12/27 10:51:05;;;;;;;2.13;1.17;;;;;;;3.34;100.00;98012.13;5011791;28;20038;-84
2020/12/27 10:53:30;;;;;;;1.42;0.85;;;;;;;3.33;100.00;98018.41;5011807;28;20042;-87
2020/12/27 10:55:55;;;;;;;2.45;1.08;;;;;;;3.34;100.00;97987.44;4994908;28;20042;-86
2020/12/27 10:58:21;;;;;;;1.30;0.85;;;;;;;3.34;100.00;97972.38;5010254;28;20069;-86
2020/12/27 11:00:46;;;;;;;2.67;1.17;;;;;;;3.34;100.00;97967.06;5003170;28;20073;-86
2020/12/27 11:03:13;;;;;;;0.95;0.60;;;;;;;3.33;100.00;97951.31;4992629;28;20057;-86
2020/12/27 11:05:39;;;;;;;1.85;1.00;;;;;;;3.33;100.00;97959.28;5010416;28;20080;-86
2020/12/27 11:08:07;;;;;;;1.25;0.90;;;;;;;3.33;100.00;97978.66;5010106;28;20038;-86
2020/12/27 11:10:34;;;;;;;1.30;0.80;;;;;;;3.32;100.00;97947.03;5011069;28;20100;-85
2020/12/27 11:12:59;;;;;;;2.00;0.90;;;;;;;3.30;100.00;97931.31;5011305;28;20065;-87
2020/12/27 11:15:25;;;;;;;1.48;0.73;;;;;;;3.31;100.00;97927.69;4994800;28;20117;-84
2020/12/27 11:17:50;;;;;;;1.60;0.70;;;;;;;3.30;100.00;97936.63;5010237;28;20479;-86
2020/12/27 11:20:16;;;;;;;2.20;0.90;;;;;;;3.34;100.00;97927.31;4994554;28;20125;-88
2020/12/27 11:22:41;;;;;;;1.77;1.00;;;;;;;3.35;100.00;97922.81;5013045;28;20049;-85
2020/12/27 11:25:07;;;;;;;1.33;1.02;;;;;;;3.34;100.00;97895.50;4993752;28;20465;-85
2020/12/27 11:27:33;;;;;;;1.20;0.68;;;;;;;3.36;100.00;97887.34;5010222;28;20041;-84
2020/12/27 11:29:58;;;;;;;1.30;0.85;;;;;;;3.34;100.00;97879.59;5027037;28;20037;-85
2020/12/27 11:32:24;;;;;;;1.85;0.82;;;;;;;3.38;100.00;97875.53;5007769;28;20046;-84
2020/12/27 11:34:49;;;;;;;1.00;0.88;;;;;;;3.36;100.00;97877.53;5009911;28;20045;-85
2020/12/27 11:37:15;;;;;;;1.88;0.70;;;;;;;3.35;100.00;97873.25;5010476;28;20076;-86
2020/12/27 11:39:41;;;;;;;1.48;1.05;;;;;;;3.34;100.00;97868.97;5028906;28;20505;-85
2020/12/27 11:42:07;;;;;;;0.90;0.80;;;;;;;3.36;100.00;97847.56;5025909;28;20049;-84
2020/12/27 11:44:32;;;;;;;1.40;0.90;;;;;;;3.36;100.00;97840.44;4997150;28;20687;-85
2020/12/27 11:47:06;;;;;;;2.05;1.00;;;;;;;3.34;100.00;97847.78;5009337;28;20153;-84